sensor_id;sensor_type;location;lat;lon;timestamp;temperature;humidity
7494;DHT22;3788;49.902;8.590;2024-01-16T00:01:45;0.90;98.90
7494;DHT22;3788;49.902;8.590;2024-01-16T00:04:13;0.90;98.90
7494;DHT22;3788;49.902;8.590;2024-01-16T00:06:40;1.00;98.80
7494;DHT22;3788;49.902;8.590;2024-01-16T00:09:07;0.90;98.80
7494;DHT22;3788;49.902;8.590;2024-01-16T00:11:34;0.90;98.80
7494;DHT22;3788;49.902;8.590;2024-01-16T00:14:00;0.90;98.80
7494;DHT22;3788;49.902;8.590;2024-01-16T00:16:27;0.90;98.80
7494;DHT22;3788;49.902;8.590;2024-01-16T00:18:53;0.90;98.80
7494;DHT22;3788;49.902;8.590;2024-01-16T00:21:21;0.90;98.80
7494;DHT22;3788;49.902;8.590;2024-01-16T00:23:48;0.80;98.90
7494;DHT22;3788;49.902;8.590;2024-01-16T00:26:21;0.80;99.00
7494;DHT22;3788;49.902;8.590;2024-01-16T00:28:48;0.80;99.20
7494;DHT22;3788;49.902;8.590;2024-01-16T00:31:14;0.80;99.30
7494;DHT22;3788;49.902;8.590;2024-01-16T00:33:41;0.80;99.30
7494;DHT22;3788;49.902;8.590;2024-01-16T00:36:08;0.90;99.40
7494;DHT22;3788;49.902;8.590;2024-01-16T00:38:36;0.90;99.30
7494;DHT22;3788;49.902;8.590;2024-01-16T00:41:03;1.00;99.40
7494;DHT22;3788;49.902;8.590;2024-01-16T00:43:29;1.00;99.30
7494;DHT22;3788;49.902;8.590;2024-01-16T00:45:56;1.00;99.30
7494;DHT22;3788;49.902;8.590;2024-01-16T00:48:23;1.00;99.10
7494;DHT22;3788;49.902;8.590;2024-01-16T00:50:49;1.00;99.10
7494;DHT22;3788;49.902;8.590;2024-01-16T00:53:16;1.00;99.10
7494;DHT22;3788;49.902;8.590;2024-01-16T00:55:44;1.00;99.00
7494;DHT22;3788;49.902;8.590;2024-01-16T00:58:11;1.00;99.00
7494;DHT22;3788;49.902;8.590;2024-01-16T01:00:38;1.00;99.00
7494;DHT22;3788;49.902;8.590;2024-01-16T01:03:04;1.00;98.90
7494;DHT22;3788;49.902;8.590;2024-01-16T01:05:31;0.90;98.90
7494;DHT22;3788;49.902;8.590;2024-01-16T01:07:58;0.80;98.90
7494;DHT22;3788;49.902;8.590;2024-01-16T01:10:25;0.80;99.00
7494;DHT22;3788;49.902;8.590;2024-01-16T01:12:53;0.70;99.10
7494;DHT22;3788;49.902;8.590;2024-01-16T01:15:19;0.60;99.20
7494;DHT22;3788;49.902;8.590;2024-01-16T01:17:48;0.50;99.40
7494;DHT22;3788;49.902;8.590;2024-01-16T01:20:15;0.40;99.60
7494;DHT22;3788;49.902;8.590;2024-01-16T01:22:43;0.30;99.70
7494;DHT22;3788;49.902;8.590;2024-01-16T01:25:11;0.20;99.70
7494;DHT22;3788;49.902;8.590;2024-01-16T01:27:37;0.20;99.90
7494;DHT22;3788;49.902;8.590;2024-01-16T01:30:07;0.10;99.90
7494;DHT22;3788;49.902;8.590;2024-01-16T01:32:34;0.10;99.90
7494;DHT22;3788;49.902;8.590;2024-01-16T01:35:00;0.00;99.90
7494;DHT22;3788;49.902;8.590;2024-01-16T01:37:27;-0.10;99.90
7494;DHT22;3788;49.902;8.590;2024-01-16T01:39:54;-0.20;99.90
7494;DHT22;3788;49.902;8.590;2024-01-16T01:42:20;-0.20;99.90
7494;DHT22;3788;49.902;8.590;2024-01-16T01:44:47;-0.20;99.90
7494;DHT22;3788;49.902;8.590;2024-01-16T01:47:15;-0.20;99.90
7494;DHT22;3788;49.902;8.590;2024-01-16T01:49:42;-0.20;99.90
7494;DHT22;3788;49.902;8.590;2024-01-16T01:52:09;-0.20;99.90
7494;DHT22;3788;49.902;8.590;2024-01-16T01:54:37;-0.20;99.90
7494;DHT22;3788;49.902;8.590;2024-01-16T01:57:05;-0.20;99.90
7494;DHT22;3788;49.902;8.590;2024-01-16T01:59:33;-0.20;99.90
7494;DHT22;3788;49.902;8.590;2024-01-16T02:02:00;-0.20;99.90
7494;DHT22;3788;49.902;8.590;2024-01-16T02:04:29;-0.20;99.90
7494;DHT22;3788;49.902;8.590;2024-01-16T02:06:58;-0.20;99.90
7494;DHT22;3788;49.902;8.590;2024-01-16T02:09:24;-0.20;99.90
7494;DHT22;3788;49.902;8.590;2024-01-16T02:11:51;-0.20;99.90
7494;DHT22;3788;49.902;8.590;2024-01-16T02:14:18;-0.20;99.90
7494;DHT22;3788;49.902;8.590;2024-01-16T02:16:44;-0.20;99.90
7494;DHT22;3788;49.902;8.590;2024-01-16T02:19:11;-0.20;99.90
7494;DHT22;3788;49.902;8.590;2024-01-16T02:21:47;-0.20;99.90
7494;DHT22;3788;49.902;8.590;2024-01-16T02:24:16;-0.20;99.90
7494;DHT22;3788;49.902;8.590;2024-01-16T02:26:44;-0.20;99.90
7494;DHT22;3788;49.902;8.590;2024-01-16T02:29:10;-0.20;99.90
7494;DHT22;3788;49.902;8.590;2024-01-16T02:31:37;-0.20;99.90
7494;DHT22;3788;49.902;8.590;2024-01-16T02:34:04;-0.20;99.90
7494;DHT22;3788;49.902;8.590;2024-01-16T02:36:30;-0.20;99.90
7494;DHT22;3788;49.902;8.590;2024-01-16T02:38:57;-0.10;99.90
7494;DHT22;3788;49.902;8.590;2024-01-16T02:41:25;-0.10;99.90
7494;DHT22;3788;49.902;8.590;2024-01-16T02:43:52;-0.10;99.90
7494;DHT22;3788;49.902;8.590;2024-01-16T02:46:18;-0.10;99.90
7494;DHT22;3788;49.902;8.590;2024-01-16T02:48:45;-0.10;99.90
7494;DHT22;3788;49.902;8.590;2024-01-16T02:51:12;-0.10;99.90
7494;DHT22;3788;49.902;8.590;2024-01-16T02:53:38;-0.20;99.90
7494;DHT22;3788;49.902;8.590;2024-01-16T02:56:05;-0.10;99.90
7494;DHT22;3788;49.902;8.590;2024-01-16T02:58:33;-0.20;99.90
7494;DHT22;3788;49.902;8.590;2024-01-16T03:01:00;-0.10;99.90
7494;DHT22;3788;49.902;8.590;2024-01-16T03:03:27;-0.10;99.90
7494;DHT22;3788;49.902;8.590;2024-01-16T03:05:54;-0.10;99.90
7494;DHT22;3788;49.902;8.590;2024-01-16T03:08:21;-0.10;99.90
7494;DHT22;3788;49.902;8.590;2024-01-16T03:10:48;-0.10;99.90
7494;DHT22;3788;49.902;8.590;2024-01-16T03:13:15;-0.10;99.90
7494;DHT22;3788;49.902;8.590;2024-01-16T03:15:43;-0.20;99.90
7494;DHT22;3788;49.902;8.590;2024-01-16T03:18:09;-0.20;99.90
7494;DHT22;3788;49.902;8.590;2024-01-16T03:20:37;-0.20;99.90
7494;DHT22;3788;49.902;8.590;2024-01-16T03:23:03;-0.20;99.90
7494;DHT22;3788;49.902;8.590;2024-01-16T03:25:30;-0.20;99.90
7494;DHT22;3788;49.902;8.590;2024-01-16T03:27:57;-0.20;99.90
7494;DHT22;3788;49.902;8.590;2024-01-16T03:30:24;-0.20;99.90
7494;DHT22;3788;49.902;8.590;2024-01-16T03:32:52;-0.20;99.90
7494;DHT22;3788;49.902;8.590;2024-01-16T03:35:19;-0.20;99.90
7494;DHT22;3788;49.902;8.590;2024-01-16T03:37:45;-0.20;99.90
7494;DHT22;3788;49.902;8.590;2024-01-16T03:40:12;-0.20;99.90
7494;DHT22;3788;49.902;8.590;2024-01-16T03:42:39;-0.10;99.90
7494;DHT22;3788;49.902;8.590;2024-01-16T03:45:07;-0.10;99.90
7494;DHT22;3788;49.902;8.590;2024-01-16T03:47:32;-0.10;99.90
7494;DHT22;3788;49.902;8.590;2024-01-16T03:50:01;-0.10;99.90
7494;DHT22;3788;49.902;8.590;2024-01-16T03:52:28;-0.10;99.90
7494;DHT22;3788;49.902;8.590;2024-01-16T03:54:54;-0.10;99.90
7494;DHT22;3788;49.902;8.590;2024-01-16T03:57:21;-0.10;99.90
7494;DHT22;3788;49.902;8.590;2024-01-16T03:59:49;-0.20;99.90
7494;DHT22;3788;49.902;8.590;2024-01-16T04:02:16;-0.20;99.90
7494;DHT22;3788;49.902;8.590;2024-01-16T04:04:42;-0.20;99.90
7494;DHT22;3788;49.902;8.590;2024-01-16T04:07:10;-0.10;99.90
7494;DHT22;3788;49.902;8.590;2024-01-16T04:09:37;-0.10;99.90
7494;DHT22;3788;49.902;8.590;2024-01-16T04:12:04;-0.10;99.90
7494;DHT22;3788;49.902;8.590;2024-01-16T04:14:33;-0.10;99.90
7494;DHT22;3788;49.902;8.590;2024-01-16T04:17:01;-0.10;99.90
7494;DHT22;3788;49.902;8.590;2024-01-16T04:19:28;-0.20;99.90
7494;DHT22;3788;49.902;8.590;2024-01-16T04:21:59;-0.20;99.90
7494;DHT22;3788;49.902;8.590;2024-01-16T04:24:27;-0.20;99.90
7494;DHT22;3788;49.902;8.590;2024-01-16T04:26:53;-0.20;99.90
7494;DHT22;3788;49.902;8.590;2024-01-16T04:29:20;-0.20;99.90
7494;DHT22;3788;49.902;8.590;2024-01-16T04:31:46;-0.20;99.90
7494;DHT22;3788;49.902;8.590;2024-01-16T04:34:13;-0.20;99.90
7494;DHT22;3788;49.902;8.590;2024-01-16T04:36:40;-0.20;99.90
7494;DHT22;3788;49.902;8.590;2024-01-16T04:39:06;-0.20;99.90
7494;DHT22;3788;49.902;8.590;2024-01-16T04:41:35;-0.20;99.90
7494;DHT22;3788;49.902;8.590;2024-01-16T04:44:02;-0.30;99.90
7494;DHT22;3788;49.902;8.590;2024-01-16T04:46:29;-0.30;99.90
7494;DHT22;3788;49.902;8.590;2024-01-16T04:48:55;-0.30;99.90
7494;DHT22;3788;49.902;8.590;2024-01-16T04:51:22;-0.40;99.90
7494;DHT22;3788;49.902;8.590;2024-01-16T04:53:49;-0.40;99.90
7494;DHT22;3788;49.902;8.590;2024-01-16T04:56:15;-0.40;99.90
7494;DHT22;3788;49.902;8.590;2024-01-16T04:58:43;-0.40;99.90
7494;DHT22;3788;49.902;8.590;2024-01-16T05:01:10;-0.40;99.90
7494;DHT22;3788;49.902;8.590;2024-01-16T05:03:36;-0.50;99.90
7494;DHT22;3788;49.902;8.590;2024-01-16T05:06:03;-0.50;99.90
7494;DHT22;3788;49.902;8.590;2024-01-16T05:08:30;-0.50;99.90
7494;DHT22;3788;49.902;8.590;2024-01-16T05:10:57;-0.50;99.90
7494;DHT22;3788;49.902;8.590;2024-01-16T05:13:24;-0.50;99.90
7494;DHT22;3788;49.902;8.590;2024-01-16T05:15:52;-0.50;99.90
7494;DHT22;3788;49.902;8.590;2024-01-16T05:18:19;-0.50;99.90
7494;DHT22;3788;49.902;8.590;2024-01-16T05:20:45;-0.50;99.90
7494;DHT22;3788;49.902;8.590;2024-01-16T05:23:12;-0.50;99.90
7494;DHT22;3788;49.902;8.590;2024-01-16T05:25:39;-0.50;99.90
7494;DHT22;3788;49.902;8.590;2024-01-16T05:28:05;-0.50;99.90
7494;DHT22;3788;49.902;8.590;2024-01-16T05:30:32;-0.50;99.90
7494;DHT22;3788;49.902;8.590;2024-01-16T05:33:00;-0.50;99.90
7494;DHT22;3788;49.902;8.590;2024-01-16T05:35:27;-0.50;99.90
7494;DHT22;3788;49.902;8.590;2024-01-16T05:37:54;-0.50;99.90
7494;DHT22;3788;49.902;8.590;2024-01-16T05:40:21;-0.50;99.90
7494;DHT22;3788;49.902;8.590;2024-01-16T05:42:48;-0.60;99.90
7494;DHT22;3788;49.902;8.590;2024-01-16T05:45:15;-0.60;99.90
7494;DHT22;3788;49.902;8.590;2024-01-16T05:47:41;-0.50;99.90
7494;DHT22;3788;49.902;8.590;2024-01-16T05:50:09;-0.50;99.90
7494;DHT22;3788;49.902;8.590;2024-01-16T05:52:36;-0.50;99.90
7494;DHT22;3788;49.902;8.590;2024-01-16T05:55:04;-0.60;99.90
7494;DHT22;3788;49.902;8.590;2024-01-16T05:57:31;-0.60;99.90
7494;DHT22;3788;49.902;8.590;2024-01-16T05:59:59;-0.60;99.90
7494;DHT22;3788;49.902;8.590;2024-01-16T06:02:27;-0.60;99.90
7494;DHT22;3788;49.902;8.590;2024-01-16T06:04:54;-0.60;99.90
7494;DHT22;3788;49.902;8.590;2024-01-16T06:07:22;-0.70;99.90
7494;DHT22;3788;49.902;8.590;2024-01-16T06:09:49;-0.70;99.90
7494;DHT22;3788;49.902;8.590;2024-01-16T06:12:15;-0.70;99.90
7494;DHT22;3788;49.902;8.590;2024-01-16T06:14:42;-0.70;99.90
7494;DHT22;3788;49.902;8.590;2024-01-16T06:17:09;-0.70;99.90
7494;DHT22;3788;49.902;8.590;2024-01-16T06:19:36;-0.70;99.90
7494;DHT22;3788;49.902;8.590;2024-01-16T06:22:02;-0.70;99.90
7494;DHT22;3788;49.902;8.590;2024-01-16T06:24:30;-0.70;99.90
7494;DHT22;3788;49.902;8.590;2024-01-16T06:27:02;-0.80;99.90
7494;DHT22;3788;49.902;8.590;2024-01-16T06:29:29;-0.80;99.90
7494;DHT22;3788;49.902;8.590;2024-01-16T06:31:56;-0.80;99.90
7494;DHT22;3788;49.902;8.590;2024-01-16T06:34:22;-0.80;99.90
7494;DHT22;3788;49.902;8.590;2024-01-16T06:36:49;-0.80;99.90
7494;DHT22;3788;49.902;8.590;2024-01-16T06:39:16;-0.80;99.90
7494;DHT22;3788;49.902;8.590;2024-01-16T06:41:44;-0.80;99.90
7494;DHT22;3788;49.902;8.590;2024-01-16T06:44:10;-0.90;99.90
7494;DHT22;3788;49.902;8.590;2024-01-16T06:46:37;-0.90;99.90
7494;DHT22;3788;49.902;8.590;2024-01-16T06:49:04;-0.90;99.90
7494;DHT22;3788;49.902;8.590;2024-01-16T06:51:30;-0.90;99.90
7494;DHT22;3788;49.902;8.590;2024-01-16T06:53:57;-1.00;99.90
7494;DHT22;3788;49.902;8.590;2024-01-16T06:56:24;-1.00;99.90
7494;DHT22;3788;49.902;8.590;2024-01-16T06:58:52;-1.00;99.90
7494;DHT22;3788;49.902;8.590;2024-01-16T07:01:19;-1.00;99.90
7494;DHT22;3788;49.902;8.590;2024-01-16T07:03:50;-1.00;99.90
7494;DHT22;3788;49.902;8.590;2024-01-16T07:06:18;-1.00;99.90
7494;DHT22;3788;49.902;8.590;2024-01-16T07:08:44;-1.00;99.90
7494;DHT22;3788;49.902;8.590;2024-01-16T07:11:11;-1.00;99.90
7494;DHT22;3788;49.902;8.590;2024-01-16T07:13:39;-0.90;99.90
7494;DHT22;3788;49.902;8.590;2024-01-16T07:16:09;-0.90;99.90
7494;DHT22;3788;49.902;8.590;2024-01-16T07:18:35;-0.90;99.90
7494;DHT22;3788;49.902;8.590;2024-01-16T07:21:02;-0.90;99.90
7494;DHT22;3788;49.902;8.590;2024-01-16T07:23:29;-0.90;99.90
7494;DHT22;3788;49.902;8.590;2024-01-16T07:25:56;-0.90;99.90
7494;DHT22;3788;49.902;8.590;2024-01-16T07:28:23;-0.90;99.90
7494;DHT22;3788;49.902;8.590;2024-01-16T07:30:52;-0.90;99.90
7494;DHT22;3788;49.902;8.590;2024-01-16T07:33:20;-0.80;99.90
7494;DHT22;3788;49.902;8.590;2024-01-16T07:35:47;-0.80;99.90
7494;DHT22;3788;49.902;8.590;2024-01-16T07:38:14;-0.80;99.90
7494;DHT22;3788;49.902;8.590;2024-01-16T07:40:41;-0.80;99.90
7494;DHT22;3788;49.902;8.590;2024-01-16T07:43:07;-0.80;99.90
7494;DHT22;3788;49.902;8.590;2024-01-16T07:45:34;-0.70;99.90
7494;DHT22;3788;49.902;8.590;2024-01-16T07:48:01;-0.70;99.90
7494;DHT22;3788;49.902;8.590;2024-01-16T07:50:29;-0.60;99.90
7494;DHT22;3788;49.902;8.590;2024-01-16T07:52:55;-0.60;99.90
7494;DHT22;3788;49.902;8.590;2024-01-16T07:55:22;-0.50;99.90
7494;DHT22;3788;49.902;8.590;2024-01-16T07:57:48;-0.50;99.90
7494;DHT22;3788;49.902;8.590;2024-01-16T08:00:16;-0.50;99.90
7494;DHT22;3788;49.902;8.590;2024-01-16T08:02:43;-0.50;99.90
7494;DHT22;3788;49.902;8.590;2024-01-16T08:05:10;-0.40;99.90
7494;DHT22;3788;49.902;8.590;2024-01-16T08:07:39;-0.50;99.90
7494;DHT22;3788;49.902;8.590;2024-01-16T08:10:09;-0.40;99.90
7494;DHT22;3788;49.902;8.590;2024-01-16T08:12:36;-0.40;99.90
7494;DHT22;3788;49.902;8.590;2024-01-16T08:15:04;-0.40;99.90
7494;DHT22;3788;49.902;8.590;2024-01-16T08:17:32;-0.40;99.90
7494;DHT22;3788;49.902;8.590;2024-01-16T08:19:59;-0.40;99.90
7494;DHT22;3788;49.902;8.590;2024-01-16T08:22:26;-0.40;99.90
7494;DHT22;3788;49.902;8.590;2024-01-16T08:24:54;-0.40;99.90
7494;DHT22;3788;49.902;8.590;2024-01-16T08:27:21;-0.40;99.90
7494;DHT22;3788;49.902;8.590;2024-01-16T08:29:47;-0.40;99.90
7494;DHT22;3788;49.902;8.590;2024-01-16T08:32:15;-0.30;99.90
7494;DHT22;3788;49.902;8.590;2024-01-16T08:34:42;-0.30;99.90
7494;DHT22;3788;49.902;8.590;2024-01-16T08:37:09;-0.30;99.90
7494;DHT22;3788;49.902;8.590;2024-01-16T08:39:35;-0.30;99.90
7494;DHT22;3788;49.902;8.590;2024-01-16T08:42:04;-0.20;99.90
7494;DHT22;3788;49.902;8.590;2024-01-16T08:44:31;-0.30;99.90
7494;DHT22;3788;49.902;8.590;2024-01-16T08:46:57;-0.20;99.90
7494;DHT22;3788;49.902;8.590;2024-01-16T08:49:25;-0.20;99.90
7494;DHT22;3788;49.902;8.590;2024-01-16T08:51:51;-0.20;99.90
7494;DHT22;3788;49.902;8.590;2024-01-16T08:54:18;-0.10;99.90
7494;DHT22;3788;49.902;8.590;2024-01-16T08:56:44;-0.10;99.90
7494;DHT22;3788;49.902;8.590;2024-01-16T08:59:12;0.00;99.90
7494;DHT22;3788;49.902;8.590;2024-01-16T09:01:39;0.00;99.90
7494;DHT22;3788;49.902;8.590;2024-01-16T09:04:07;0.00;99.90
7494;DHT22;3788;49.902;8.590;2024-01-16T09:06:34;0.10;99.90
7494;DHT22;3788;49.902;8.590;2024-01-16T09:09:00;0.10;99.90
7494;DHT22;3788;49.902;8.590;2024-01-16T09:11:29;0.10;99.90
7494;DHT22;3788;49.902;8.590;2024-01-16T09:13:56;0.10;99.90
7494;DHT22;3788;49.902;8.590;2024-01-16T09:16:24;0.10;99.90
7494;DHT22;3788;49.902;8.590;2024-01-16T09:18:51;0.10;99.90
7494;DHT22;3788;49.902;8.590;2024-01-16T09:21:17;0.20;99.90
7494;DHT22;3788;49.902;8.590;2024-01-16T09:23:44;0.20;99.90
7494;DHT22;3788;49.902;8.590;2024-01-16T09:26:11;0.20;99.90
7494;DHT22;3788;49.902;8.590;2024-01-16T09:28:37;0.20;99.90
7494;DHT22;3788;49.902;8.590;2024-01-16T09:31:05;0.20;99.90
7494;DHT22;3788;49.902;8.590;2024-01-16T09:33:33;0.20;99.90
7494;DHT22;3788;49.902;8.590;2024-01-16T09:36:00;0.20;99.90
7494;DHT22;3788;49.902;8.590;2024-01-16T09:38:27;0.20;99.90
7494;DHT22;3788;49.902;8.590;2024-01-16T09:40:53;0.20;99.90
7494;DHT22;3788;49.902;8.590;2024-01-16T09:43:25;0.30;99.90
7494;DHT22;3788;49.902;8.590;2024-01-16T09:45:52;0.40;99.90
7494;DHT22;3788;49.902;8.590;2024-01-16T09:48:20;0.40;99.90
7494;DHT22;3788;49.902;8.590;2024-01-16T09:50:48;0.50;99.90
7494;DHT22;3788;49.902;8.590;2024-01-16T09:53:15;0.60;99.90
7494;DHT22;3788;49.902;8.590;2024-01-16T09:55:42;0.60;99.70
7494;DHT22;3788;49.902;8.590;2024-01-16T09:58:09;0.70;99.50
7494;DHT22;3788;49.902;8.590;2024-01-16T10:00:41;0.70;99.30
7494;DHT22;3788;49.902;8.590;2024-01-16T10:03:10;0.80;99.20
7494;DHT22;3788;49.902;8.590;2024-01-16T10:05:38;0.80;99.10
7494;DHT22;3788;49.902;8.590;2024-01-16T10:08:06;0.90;98.90
7494;DHT22;3788;49.902;8.590;2024-01-16T10:10:34;0.90;98.80
7494;DHT22;3788;49.902;8.590;2024-01-16T10:13:02;0.90;98.70
7494;DHT22;3788;49.902;8.590;2024-01-16T10:15:30;1.00;98.70
7494;DHT22;3788;49.902;8.590;2024-01-16T10:17:57;1.00;98.50
7494;DHT22;3788;49.902;8.590;2024-01-16T10:20:34;1.10;98.40
7494;DHT22;3788;49.902;8.590;2024-01-16T10:23:01;1.10;98.20
7494;DHT22;3788;49.902;8.590;2024-01-16T10:25:30;1.10;98.10
7494;DHT22;3788;49.902;8.590;2024-01-16T10:28:04;1.10;98.30
7494;DHT22;3788;49.902;8.590;2024-01-16T10:30:33;1.10;98.30
7494;DHT22;3788;49.902;8.590;2024-01-16T10:33:12;1.20;98.20
7494;DHT22;3788;49.902;8.590;2024-01-16T10:35:39;1.20;98.00
7494;DHT22;3788;49.902;8.590;2024-01-16T10:38:06;1.20;98.00
7494;DHT22;3788;49.902;8.590;2024-01-16T10:40:34;1.20;98.00
7494;DHT22;3788;49.902;8.590;2024-01-16T10:43:02;1.20;98.00
7494;DHT22;3788;49.902;8.590;2024-01-16T10:45:30;1.20;98.10
7494;DHT22;3788;49.902;8.590;2024-01-16T10:48:03;1.30;98.10
7494;DHT22;3788;49.902;8.590;2024-01-16T10:50:30;1.40;98.00
7494;DHT22;3788;49.902;8.590;2024-01-16T10:52:59;1.40;98.00
7494;DHT22;3788;49.902;8.590;2024-01-16T10:55:28;1.50;97.80
7494;DHT22;3788;49.902;8.590;2024-01-16T10:57:57;1.60;97.80
7494;DHT22;3788;49.902;8.590;2024-01-16T11:00:26;1.60;97.70
7494;DHT22;3788;49.902;8.590;2024-01-16T11:02:58;1.60;97.60
7494;DHT22;3788;49.902;8.590;2024-01-16T11:05:26;1.60;97.30
7494;DHT22;3788;49.902;8.590;2024-01-16T11:07:55;1.60;97.30
7494;DHT22;3788;49.902;8.590;2024-01-16T11:10:24;1.60;97.60
7494;DHT22;3788;49.902;8.590;2024-01-16T11:12:52;1.50;97.60
7494;DHT22;3788;49.902;8.590;2024-01-16T11:15:21;1.60;97.80
7494;DHT22;3788;49.902;8.590;2024-01-16T11:17:49;1.60;97.80
7494;DHT22;3788;49.902;8.590;2024-01-16T11:20:16;1.60;97.80
7494;DHT22;3788;49.902;8.590;2024-01-16T11:22:45;1.60;97.80
7494;DHT22;3788;49.902;8.590;2024-01-16T11:25:13;1.70;97.80
7494;DHT22;3788;49.902;8.590;2024-01-16T11:27:41;1.70;97.70
7494;DHT22;3788;49.902;8.590;2024-01-16T11:30:09;1.70;97.50
7494;DHT22;3788;49.902;8.590;2024-01-16T11:32:39;1.70;97.40
7494;DHT22;3788;49.902;8.590;2024-01-16T11:35:07;1.70;97.40
7494;DHT22;3788;49.902;8.590;2024-01-16T11:37:34;1.70;97.30
7494;DHT22;3788;49.902;8.590;2024-01-16T11:40:22;1.80;97.50
7494;DHT22;3788;49.902;8.590;2024-01-16T11:42:51;1.90;97.60
7494;DHT22;3788;49.902;8.590;2024-01-16T11:45:49;2.00;97.40
7494;DHT22;3788;49.902;8.590;2024-01-16T11:48:20;2.10;97.30
7494;DHT22;3788;49.902;8.590;2024-01-16T11:50:47;2.30;97.20
7494;DHT22;3788;49.902;8.590;2024-01-16T11:53:34;2.50;97.30
7494;DHT22;3788;49.902;8.590;2024-01-16T11:56:35;2.60;96.00
7494;DHT22;3788;49.902;8.590;2024-01-16T12:01:58;2.80;95.40
7494;DHT22;3788;49.902;8.590;2024-01-16T12:04:26;2.90;95.00
7494;DHT22;3788;49.902;8.590;2024-01-16T12:06:59;3.00;94.70
7494;DHT22;3788;49.902;8.590;2024-01-16T12:09:27;3.00;94.00
7494;DHT22;3788;49.902;8.590;2024-01-16T12:11:57;2.80;93.80
7494;DHT22;3788;49.902;8.590;2024-01-16T12:14:24;2.70;94.00
7494;DHT22;3788;49.902;8.590;2024-01-16T12:16:50;2.60;94.00
7494;DHT22;3788;49.902;8.590;2024-01-16T12:19:17;2.50;94.30
7494;DHT22;3788;49.902;8.590;2024-01-16T12:21:45;2.50;94.50
7494;DHT22;3788;49.902;8.590;2024-01-16T12:24:13;2.50;94.80
7494;DHT22;3788;49.902;8.590;2024-01-16T12:26:39;2.60;94.80
7494;DHT22;3788;49.902;8.590;2024-01-16T12:29:07;2.80;94.80
7494;DHT22;3788;49.902;8.590;2024-01-16T12:31:33;2.90;94.60
7494;DHT22;3788;49.902;8.590;2024-01-16T12:34:06;3.00;93.80
7494;DHT22;3788;49.902;8.590;2024-01-16T12:36:34;3.10;93.70
7494;DHT22;3788;49.902;8.590;2024-01-16T12:39:02;3.10;93.70
7494;DHT22;3788;49.902;8.590;2024-01-16T12:41:32;3.20;93.50
7494;DHT22;3788;49.902;8.590;2024-01-16T12:44:00;3.20;93.40
7494;DHT22;3788;49.902;8.590;2024-01-16T12:46:26;3.30;93.20
7494;DHT22;3788;49.902;8.590;2024-01-16T12:49:00;3.20;92.70
7494;DHT22;3788;49.902;8.590;2024-01-16T12:51:27;3.10;92.80
7494;DHT22;3788;49.902;8.590;2024-01-16T12:53:54;3.10;93.00
7494;DHT22;3788;49.902;8.590;2024-01-16T12:56:22;3.10;92.70
7494;DHT22;3788;49.902;8.590;2024-01-16T12:58:49;3.10;92.60
7494;DHT22;3788;49.902;8.590;2024-01-16T13:01:24;3.10;92.70
7494;DHT22;3788;49.902;8.590;2024-01-16T13:03:51;3.00;92.50
7494;DHT22;3788;49.902;8.590;2024-01-16T13:06:18;3.10;92.60
7494;DHT22;3788;49.902;8.590;2024-01-16T13:08:46;3.10;92.30
7494;DHT22;3788;49.902;8.590;2024-01-16T13:11:13;3.20;92.30
7494;DHT22;3788;49.902;8.590;2024-01-16T13:13:42;3.30;92.10
7494;DHT22;3788;49.902;8.590;2024-01-16T13:16:09;3.40;92.00
7494;DHT22;3788;49.902;8.590;2024-01-16T13:18:36;3.50;91.60
7494;DHT22;3788;49.902;8.590;2024-01-16T13:21:03;3.60;91.80
7494;DHT22;3788;49.902;8.590;2024-01-16T13:23:31;3.60;91.30
7494;DHT22;3788;49.902;8.590;2024-01-16T13:25:57;3.60;91.40
7494;DHT22;3788;49.902;8.590;2024-01-16T13:28:24;3.60;91.40
7494;DHT22;3788;49.902;8.590;2024-01-16T13:30:53;3.60;91.40
7494;DHT22;3788;49.902;8.590;2024-01-16T13:33:19;3.60;91.10
7494;DHT22;3788;49.902;8.590;2024-01-16T13:35:47;3.50;90.80
7494;DHT22;3788;49.902;8.590;2024-01-16T13:38:14;3.50;91.00
7494;DHT22;3788;49.902;8.590;2024-01-16T13:40:42;3.40;90.90
7494;DHT22;3788;49.902;8.590;2024-01-16T13:43:08;3.40;90.90
7494;DHT22;3788;49.902;8.590;2024-01-16T13:45:35;3.40;90.90
7494;DHT22;3788;49.902;8.590;2024-01-16T13:48:04;3.40;90.90
7494;DHT22;3788;49.902;8.590;2024-01-16T13:50:31;3.30;90.90
7494;DHT22;3788;49.902;8.590;2024-01-16T13:52:58;3.30;91.10
7494;DHT22;3788;49.902;8.590;2024-01-16T13:55:25;3.30;91.20
7494;DHT22;3788;49.902;8.590;2024-01-16T13:57:52;3.20;90.90
7494;DHT22;3788;49.902;8.590;2024-01-16T14:00:18;3.10;91.00
7494;DHT22;3788;49.902;8.590;2024-01-16T14:02:46;3.00;91.10
7494;DHT22;3788;49.902;8.590;2024-01-16T14:05:15;2.90;90.80
7494;DHT22;3788;49.902;8.590;2024-01-16T14:07:43;2.80;90.90
7494;DHT22;3788;49.902;8.590;2024-01-16T14:10:11;2.80;91.00
7494;DHT22;3788;49.902;8.590;2024-01-16T14:12:38;2.80;91.00
7494;DHT22;3788;49.902;8.590;2024-01-16T14:15:08;2.70;90.70
7494;DHT22;3788;49.902;8.590;2024-01-16T14:17:41;2.60;90.50
7494;DHT22;3788;49.902;8.590;2024-01-16T14:20:09;2.50;90.60
7494;DHT22;3788;49.902;8.590;2024-01-16T14:22:38;2.50;90.80
7494;DHT22;3788;49.902;8.590;2024-01-16T14:25:06;2.50;90.90
7494;DHT22;3788;49.902;8.590;2024-01-16T14:27:37;2.50;90.90
7494;DHT22;3788;49.902;8.590;2024-01-16T14:30:05;2.50;91.00
7494;DHT22;3788;49.902;8.590;2024-01-16T14:32:32;2.60;91.10
7494;DHT22;3788;49.902;8.590;2024-01-16T14:34:59;2.60;91.10
7494;DHT22;3788;49.902;8.590;2024-01-16T14:37:25;2.60;91.10
7494;DHT22;3788;49.902;8.590;2024-01-16T14:39:53;2.70;91.00
7494;DHT22;3788;49.902;8.590;2024-01-16T14:42:20;2.70;90.90
7494;DHT22;3788;49.902;8.590;2024-01-16T14:44:48;2.60;90.90
7494;DHT22;3788;49.902;8.590;2024-01-16T14:47:14;2.60;90.90
7494;DHT22;3788;49.902;8.590;2024-01-16T14:49:41;2.60;90.90
7494;DHT22;3788;49.902;8.590;2024-01-16T14:52:07;2.60;90.90
7494;DHT22;3788;49.902;8.590;2024-01-16T14:54:34;2.60;90.90
7494;DHT22;3788;49.902;8.590;2024-01-16T14:57:02;2.60;91.00
7494;DHT22;3788;49.902;8.590;2024-01-16T14:59:30;2.60;91.00
7494;DHT22;3788;49.902;8.590;2024-01-16T15:01:56;2.50;90.90
7494;DHT22;3788;49.902;8.590;2024-01-16T15:04:23;2.50;90.80
7494;DHT22;3788;49.902;8.590;2024-01-16T15:06:50;2.50;90.70
7494;DHT22;3788;49.902;8.590;2024-01-16T15:09:18;2.50;90.60
7494;DHT22;3788;49.902;8.590;2024-01-16T15:11:44;2.40;90.50
7494;DHT22;3788;49.902;8.590;2024-01-16T15:14:12;2.40;90.50
7494;DHT22;3788;49.902;8.590;2024-01-16T15:16:39;2.30;90.30
7494;DHT22;3788;49.902;8.590;2024-01-16T15:19:06;2.30;90.40
7494;DHT22;3788;49.902;8.590;2024-01-16T15:21:32;2.30;90.40
7494;DHT22;3788;49.902;8.590;2024-01-16T15:23:59;2.30;90.40
7494;DHT22;3788;49.902;8.590;2024-01-16T15:26:25;2.20;90.50
7494;DHT22;3788;49.902;8.590;2024-01-16T15:28:52;2.20;90.50
7494;DHT22;3788;49.902;8.590;2024-01-16T15:31:20;2.10;90.50
7494;DHT22;3788;49.902;8.590;2024-01-16T15:33:46;2.10;90.50
7494;DHT22;3788;49.902;8.590;2024-01-16T15:36:13;2.00;90.50
7494;DHT22;3788;49.902;8.590;2024-01-16T15:38:40;2.00;90.60
7494;DHT22;3788;49.902;8.590;2024-01-16T15:41:06;2.00;90.80
7494;DHT22;3788;49.902;8.590;2024-01-16T15:43:33;1.90;90.80
7494;DHT22;3788;49.902;8.590;2024-01-16T15:46:00;1.90;90.90
7494;DHT22;3788;49.902;8.590;2024-01-16T15:48:28;1.90;91.00
7494;DHT22;3788;49.902;8.590;2024-01-16T15:50:59;1.90;91.10
7494;DHT22;3788;49.902;8.590;2024-01-16T15:53:25;1.80;91.10
7494;DHT22;3788;49.902;8.590;2024-01-16T15:55:52;1.80;91.20
7494;DHT22;3788;49.902;8.590;2024-01-16T15:58:19;1.70;91.30
7494;DHT22;3788;49.902;8.590;2024-01-16T16:00:45;1.60;91.50
7494;DHT22;3788;49.902;8.590;2024-01-16T16:03:12;1.60;91.60
7494;DHT22;3788;49.902;8.590;2024-01-16T16:05:40;1.50;91.70
7494;DHT22;3788;49.902;8.590;2024-01-16T16:08:07;1.40;91.80
7494;DHT22;3788;49.902;8.590;2024-01-16T16:10:34;1.40;92.00
7494;DHT22;3788;49.902;8.590;2024-01-16T16:13:01;1.40;92.00
7494;DHT22;3788;49.902;8.590;2024-01-16T16:15:29;1.30;92.00